sensor_id;sensor_type;location;lat;lon;timestamp;temperature;humidity
5508;DHT22;2776;51.046;6.772;2024-02-21T00:00:15;9.40;99.90
5508;DHT22;2776;51.046;6.772;2024-02-21T00:02:42;9.40;99.90
5508;DHT22;2776;51.046;6.772;2024-02-21T00:05:09;9.30;99.90
5508;DHT22;2776;51.046;6.772;2024-02-21T00:07:36;9.30;99.90
5508;DHT22;2776;51.046;6.772;2024-02-21T00:10:03;9.30;99.90
5508;DHT22;2776;51.046;6.772;2024-02-21T00:12:31;9.30;99.90
5508;DHT22;2776;51.046;6.772;2024-02-21T00:14:57;9.30;99.90
5508;DHT22;2776;51.046;6.772;2024-02-21T00:17:24;9.30;99.90
5508;DHT22;2776;51.046;6.772;2024-02-21T00:19:51;9.20;99.90
5508;DHT22;2776;51.046;6.772;2024-02-21T00:22:18;9.30;99.90
5508;DHT22;2776;51.046;6.772;2024-02-21T00:24:44;9.30;99.90
5508;DHT22;2776;51.046;6.772;2024-02-21T00:27:11;9.30;99.90
5508;DHT22;2776;51.046;6.772;2024-02-21T00:29:39;9.30;99.90
5508;DHT22;2776;51.046;6.772;2024-02-21T00:32:06;9.30;99.90
5508;DHT22;2776;51.046;6.772;2024-02-21T00:34:33;9.30;99.90
5508;DHT22;2776;51.046;6.772;2024-02-21T00:37:01;9.30;99.90
5508;DHT22;2776;51.046;6.772;2024-02-21T00:39:27;9.40;99.90
5508;DHT22;2776;51.046;6.772;2024-02-21T00:41:54;9.40;99.90
5508;DHT22;2776;51.046;6.772;2024-02-21T00:44:20;9.40;99.90
5508;DHT22;2776;51.046;6.772;2024-02-21T00:46:48;9.40;99.90
5508;DHT22;2776;51.046;6.772;2024-02-21T00:49:16;9.40;99.90
5508;DHT22;2776;51.046;6.772;2024-02-21T00:51:42;9.30;99.90
5508;DHT22;2776;51.046;6.772;2024-02-21T00:54:09;9.30;99.90
5508;DHT22;2776;51.046;6.772;2024-02-21T00:56:36;9.30;99.90
5508;DHT22;2776;51.046;6.772;2024-02-21T00:59:02;9.30;99.90
5508;DHT22;2776;51.046;6.772;2024-02-21T01:01:29;9.30;99.90
5508;DHT22;2776;51.046;6.772;2024-02-21T01:03:57;9.30;99.90
5508;DHT22;2776;51.046;6.772;2024-02-21T01:06:24;9.30;99.90
5508;DHT22;2776;51.046;6.772;2024-02-21T01:08:50;9.30;99.90
5508;DHT22;2776;51.046;6.772;2024-02-21T01:11:17;9.30;99.90
5508;DHT22;2776;51.046;6.772;2024-02-21T01:13:44;9.30;99.90
5508;DHT22;2776;51.046;6.772;2024-02-21T01:16:11;9.20;99.90
5508;DHT22;2776;51.046;6.772;2024-02-21T01:18:38;9.20;99.90
5508;DHT22;2776;51.046;6.772;2024-02-21T01:21:07;9.30;99.90
5508;DHT22;2776;51.046;6.772;2024-02-21T01:23:35;9.30;99.90
5508;DHT22;2776;51.046;6.772;2024-02-21T01:26:03;9.30;99.90
5508;DHT22;2776;51.046;6.772;2024-02-21T01:28:30;9.40;99.90
5508;DHT22;2776;51.046;6.772;2024-02-21T01:30:57;9.40;99.90
5508;DHT22;2776;51.046;6.772;2024-02-21T01:33:24;9.40;99.90
5508;DHT22;2776;51.046;6.772;2024-02-21T01:35:50;9.30;99.90
5508;DHT22;2776;51.046;6.772;2024-02-21T01:38:18;9.30;99.90
5508;DHT22;2776;51.046;6.772;2024-02-21T01:40:45;9.30;99.90
5508;DHT22;2776;51.046;6.772;2024-02-21T01:43:16;9.20;99.90
5508;DHT22;2776;51.046;6.772;2024-02-21T01:45:43;9.20;99.90
5508;DHT22;2776;51.046;6.772;2024-02-21T01:48:10;9.20;99.90
5508;DHT22;2776;51.046;6.772;2024-02-21T01:50:37;9.20;99.90
5508;DHT22;2776;51.046;6.772;2024-02-21T01:53:04;9.20;99.90
5508;DHT22;2776;51.046;6.772;2024-02-21T01:55:32;9.10;99.90
5508;DHT22;2776;51.046;6.772;2024-02-21T01:57:59;9.20;99.90
5508;DHT22;2776;51.046;6.772;2024-02-21T02:00:26;9.20;99.90
5508;DHT22;2776;51.046;6.772;2024-02-21T02:02:54;9.20;99.90
5508;DHT22;2776;51.046;6.772;2024-02-21T02:05:21;9.20;99.90
5508;DHT22;2776;51.046;6.772;2024-02-21T02:07:48;9.20;99.90
5508;DHT22;2776;51.046;6.772;2024-02-21T02:10:15;9.20;99.90
5508;DHT22;2776;51.046;6.772;2024-02-21T02:12:43;9.20;99.90
5508;DHT22;2776;51.046;6.772;2024-02-21T02:15:10;9.20;99.90
5508;DHT22;2776;51.046;6.772;2024-02-21T02:17:36;9.20;99.90
5508;DHT22;2776;51.046;6.772;2024-02-21T02:20:04;9.20;99.90
5508;DHT22;2776;51.046;6.772;2024-02-21T02:22:32;9.20;99.90
5508;DHT22;2776;51.046;6.772;2024-02-21T02:25:01;9.30;99.90
5508;DHT22;2776;51.046;6.772;2024-02-21T02:27:28;9.20;99.90
5508;DHT22;2776;51.046;6.772;2024-02-21T02:29:55;9.20;99.90
5508;DHT22;2776;51.046;6.772;2024-02-21T02:32:21;9.10;99.90
5508;DHT22;2776;51.046;6.772;2024-02-21T02:34:48;9.20;99.90
5508;DHT22;2776;51.046;6.772;2024-02-21T02:37:15;9.20;99.90
5508;DHT22;2776;51.046;6.772;2024-02-21T02:39:42;9.20;99.90
5508;DHT22;2776;51.046;6.772;2024-02-21T02:42:10;9.20;99.90
5508;DHT22;2776;51.046;6.772;2024-02-21T02:44:36;9.20;99.90
5508;DHT22;2776;51.046;6.772;2024-02-21T02:47:03;9.10;99.90
5508;DHT22;2776;51.046;6.772;2024-02-21T02:49:30;9.10;99.90
5508;DHT22;2776;51.046;6.772;2024-02-21T02:51:56;9.20;99.90
5508;DHT22;2776;51.046;6.772;2024-02-21T02:54:23;9.10;99.90
5508;DHT22;2776;51.046;6.772;2024-02-21T02:56:50;9.00;99.90
5508;DHT22;2776;51.046;6.772;2024-02-21T02:59:18;9.00;99.90
5508;DHT22;2776;51.046;6.772;2024-02-21T03:01:45;9.00;99.90
5508;DHT22;2776;51.046;6.772;2024-02-21T03:04:11;9.00;99.90
5508;DHT22;2776;51.046;6.772;2024-02-21T03:06:38;9.00;99.90
5508;DHT22;2776;51.046;6.772;2024-02-21T03:09:05;9.00;99.90
5508;DHT22;2776;51.046;6.772;2024-02-21T03:11:34;9.00;99.90
5508;DHT22;2776;51.046;6.772;2024-02-21T03:14:00;8.90;99.90
5508;DHT22;2776;51.046;6.772;2024-02-21T03:16:28;9.00;99.90
5508;DHT22;2776;51.046;6.772;2024-02-21T03:18:55;9.00;99.90
5508;DHT22;2776;51.046;6.772;2024-02-21T03:21:22;9.00;99.90
5508;DHT22;2776;51.046;6.772;2024-02-21T03:23:48;9.00;99.90
5508;DHT22;2776;51.046;6.772;2024-02-21T03:26:15;9.00;99.90
5508;DHT22;2776;51.046;6.772;2024-02-21T03:28:42;9.00;99.90
5508;DHT22;2776;51.046;6.772;2024-02-21T03:31:11;9.00;99.90
5508;DHT22;2776;51.046;6.772;2024-02-21T03:33:39;9.10;99.90
5508;DHT22;2776;51.046;6.772;2024-02-21T03:36:07;9.10;99.90
5508;DHT22;2776;51.046;6.772;2024-02-21T03:38:39;9.10;99.90
5508;DHT22;2776;51.046;6.772;2024-02-21T03:41:05;9.10;99.90
5508;DHT22;2776;51.046;6.772;2024-02-21T03:43:32;9.00;99.90
5508;DHT22;2776;51.046;6.772;2024-02-21T03:45:59;9.10;99.90
5508;DHT22;2776;51.046;6.772;2024-02-21T03:48:26;9.10;99.90
5508;DHT22;2776;51.046;6.772;2024-02-21T03:50:54;9.10;99.90
5508;DHT22;2776;51.046;6.772;2024-02-21T03:53:21;9.10;99.90
5508;DHT22;2776;51.046;6.772;2024-02-21T03:55:48;9.10;99.90
5508;DHT22;2776;51.046;6.772;2024-02-21T03:58:15;9.10;99.90
5508;DHT22;2776;51.046;6.772;2024-02-21T04:00:41;9.10;99.90
5508;DHT22;2776;51.046;6.772;2024-02-21T04:03:08;9.10;99.90
5508;DHT22;2776;51.046;6.772;2024-02-21T04:05:35;9.10;99.90
5508;DHT22;2776;51.046;6.772;2024-02-21T04:08:05;9.20;99.90
5508;DHT22;2776;51.046;6.772;2024-02-21T04:10:32;9.10;99.90
5508;DHT22;2776;51.046;6.772;2024-02-21T04:12:58;9.20;99.90
5508;DHT22;2776;51.046;6.772;2024-02-21T04:15:25;9.20;99.90
5508;DHT22;2776;51.046;6.772;2024-02-21T04:17:52;9.20;99.90
5508;DHT22;2776;51.046;6.772;2024-02-21T04:20:18;9.20;99.90
5508;DHT22;2776;51.046;6.772;2024-02-21T04:22:45;9.20;99.90
5508;DHT22;2776;51.046;6.772;2024-02-21T04:25:13;9.10;99.90
5508;DHT22;2776;51.046;6.772;2024-02-21T04:27:40;9.20;99.90
5508;DHT22;2776;51.046;6.772;2024-02-21T04:30:08;9.20;99.90
5508;DHT22;2776;51.046;6.772;2024-02-21T04:32:35;9.20;99.90
5508;DHT22;2776;51.046;6.772;2024-02-21T04:35:01;9.20;99.90
5508;DHT22;2776;51.046;6.772;2024-02-21T04:37:28;9.20;99.90
5508;DHT22;2776;51.046;6.772;2024-02-21T04:39:56;9.20;99.90
5508;DHT22;2776;51.046;6.772;2024-02-21T04:42:24;9.20;99.90
5508;DHT22;2776;51.046;6.772;2024-02-21T04:44:51;9.20;99.90
5508;DHT22;2776;51.046;6.772;2024-02-21T04:47:18;9.20;99.90
5508;DHT22;2776;51.046;6.772;2024-02-21T04:49:45;9.20;99.90
5508;DHT22;2776;51.046;6.772;2024-02-21T04:52:12;9.20;99.90
5508;DHT22;2776;51.046;6.772;2024-02-21T04:54:38;9.20;99.90
5508;DHT22;2776;51.046;6.772;2024-02-21T04:57:05;9.20;99.90
5508;DHT22;2776;51.046;6.772;2024-02-21T04:59:34;9.20;99.90
5508;DHT22;2776;51.046;6.772;2024-02-21T05:02:01;9.10;99.90
5508;DHT22;2776;51.046;6.772;2024-02-21T05:04:28;9.10;99.90
5508;DHT22;2776;51.046;6.772;2024-02-21T05:06:54;9.20;99.90
5508;DHT22;2776;51.046;6.772;2024-02-21T05:09:21;9.10;99.90
5508;DHT22;2776;51.046;6.772;2024-02-21T05:11:48;9.20;99.90
5508;DHT22;2776;51.046;6.772;2024-02-21T05:14:15;9.20;99.90
5508;DHT22;2776;51.046;6.772;2024-02-21T05:16:43;9.10;99.90
5508;DHT22;2776;51.046;6.772;2024-02-21T05:19:09;9.10;99.90
5508;DHT22;2776;51.046;6.772;2024-02-21T05:21:36;9.10;99.90
5508;DHT22;2776;51.046;6.772;2024-02-21T05:24:03;9.10;99.90
5508;DHT22;2776;51.046;6.772;2024-02-21T05:26:30;9.10;99.90
5508;DHT22;2776;51.046;6.772;2024-02-21T05:28:57;9.10;99.90
5508;DHT22;2776;51.046;6.772;2024-02-21T05:31:24;9.10;99.90
5508;DHT22;2776;51.046;6.772;2024-02-21T05:33:53;9.10;99.90
5508;DHT22;2776;51.046;6.772;2024-02-21T05:36:19;9.10;99.90
5508;DHT22;2776;51.046;6.772;2024-02-21T05:38:46;9.10;99.90
5508;DHT22;2776;51.046;6.772;2024-02-21T05:41:13;9.10;99.90
5508;DHT22;2776;51.046;6.772;2024-02-21T05:43:40;9.10;99.90
5508;DHT22;2776;51.046;6.772;2024-02-21T05:46:07;9.10;99.90
5508;DHT22;2776;51.046;6.772;2024-02-21T05:48:33;9.20;99.90
5508;DHT22;2776;51.046;6.772;2024-02-21T05:51:03;9.20;99.90
5508;DHT22;2776;51.046;6.772;2024-02-21T05:53:30;9.30;99.90
5508;DHT22;2776;51.046;6.772;2024-02-21T05:55:56;9.20;99.90
5508;DHT22;2776;51.046;6.772;2024-02-21T05:58:23;9.20;99.90
5508;DHT22;2776;51.046;6.772;2024-02-21T06:00:50;9.20;99.90
5508;DHT22;2776;51.046;6.772;2024-02-21T06:03:17;9.20;99.90
5508;DHT22;2776;51.046;6.772;2024-02-21T06:05:44;9.20;99.90
5508;DHT22;2776;51.046;6.772;2024-02-21T06:08:12;9.20;99.90
5508;DHT22;2776;51.046;6.772;2024-02-21T06:10:38;9.20;99.90
5508;DHT22;2776;51.046;6.772;2024-02-21T06:13:05;9.20;99.90
5508;DHT22;2776;51.046;6.772;2024-02-21T06:15:32;9.10;99.90
5508;DHT22;2776;51.046;6.772;2024-02-21T06:17:58;9.20;99.90
5508;DHT22;2776;51.046;6.772;2024-02-21T06:20:25;9.10;99.90
5508;DHT22;2776;51.046;6.772;2024-02-21T06:22:52;9.10;99.90
5508;DHT22;2776;51.046;6.772;2024-02-21T06:25:20;9.10;99.90
5508;DHT22;2776;51.046;6.772;2024-02-21T06:27:47;9.10;99.90
5508;DHT22;2776;51.046;6.772;2024-02-21T06:30:14;9.10;99.90
5508;DHT22;2776;51.046;6.772;2024-02-21T06:32:41;9.10;99.90
5508;DHT22;2776;51.046;6.772;2024-02-21T06:35:07;9.10;99.90
5508;DHT22;2776;51.046;6.772;2024-02-21T06:37:34;9.10;99.90
5508;DHT22;2776;51.046;6.772;2024-02-21T06:40:02;9.10;99.90
5508;DHT22;2776;51.046;6.772;2024-02-21T06:42:30;9.00;99.90
5508;DHT22;2776;51.046;6.772;2024-02-21T06:44:57;9.00;99.90
5508;DHT22;2776;51.046;6.772;2024-02-21T06:47:24;9.00;99.90
5508;DHT22;2776;51.046;6.772;2024-02-21T06:49:51;9.00;99.90
5508;DHT22;2776;51.046;6.772;2024-02-21T06:52:18;9.10;99.90
5508;DHT22;2776;51.046;6.772;2024-02-21T06:54:45;9.10;99.90
5508;DHT22;2776;51.046;6.772;2024-02-21T06:57:12;9.10;99.90
5508;DHT22;2776;51.046;6.772;2024-02-21T06:59:41;9.00;99.90
5508;DHT22;2776;51.046;6.772;2024-02-21T07:02:07;9.00;99.90
5508;DHT22;2776;51.046;6.772;2024-02-21T07:04:34;9.00;99.90
5508;DHT22;2776;51.046;6.772;2024-02-21T07:07:01;9.00;99.90
5508;DHT22;2776;51.046;6.772;2024-02-21T07:09:28;9.00;99.90
5508;DHT22;2776;51.046;6.772;2024-02-21T07:11:57;9.00;99.90
5508;DHT22;2776;51.046;6.772;2024-02-21T07:14:24;8.90;99.90
5508;DHT22;2776;51.046;6.772;2024-02-21T07:16:52;9.00;99.90
5508;DHT22;2776;51.046;6.772;2024-02-21T07:19:19;9.00;99.90
5508;DHT22;2776;51.046;6.772;2024-02-21T07:21:46;9.10;99.90
5508;DHT22;2776;51.046;6.772;2024-02-21T07:24:13;9.10;99.90
5508;DHT22;2776;51.046;6.772;2024-02-21T07:26:41;9.10;99.90
5508;DHT22;2776;51.046;6.772;2024-02-21T07:29:09;9.10;99.90
5508;DHT22;2776;51.046;6.772;2024-02-21T07:31:40;9.20;99.90
5508;DHT22;2776;51.046;6.772;2024-02-21T07:34:08;9.20;99.90
5508;DHT22;2776;51.046;6.772;2024-02-21T07:36:35;9.30;99.90
5508;DHT22;2776;51.046;6.772;2024-02-21T07:39:03;9.30;99.90
5508;DHT22;2776;51.046;6.772;2024-02-21T07:41:30;9.20;99.90
5508;DHT22;2776;51.046;6.772;2024-02-21T07:43:57;9.10;99.90
5508;DHT22;2776;51.046;6.772;2024-02-21T07:46:24;9.20;99.90
5508;DHT22;2776;51.046;6.772;2024-02-21T07:48:51;9.10;99.90
5508;DHT22;2776;51.046;6.772;2024-02-21T07:51:19;9.10;99.90
5508;DHT22;2776;51.046;6.772;2024-02-21T07:53:45;9.00;99.90
5508;DHT22;2776;51.046;6.772;2024-02-21T07:56:13;9.00;99.90
5508;DHT22;2776;51.046;6.772;2024-02-21T07:58:40;9.10;99.90
5508;DHT22;2776;51.046;6.772;2024-02-21T08:01:07;9.10;99.90
5508;DHT22;2776;51.046;6.772;2024-02-21T08:03:34;9.10;99.90
5508;DHT22;2776;51.046;6.772;2024-02-21T08:06:02;9.10;99.90
5508;DHT22;2776;51.046;6.772;2024-02-21T08:08:31;9.10;99.90
5508;DHT22;2776;51.046;6.772;2024-02-21T08:10:57;9.10;99.90
5508;DHT22;2776;51.046;6.772;2024-02-21T08:13:24;9.10;99.90
5508;DHT22;2776;51.046;6.772;2024-02-21T08:15:51;9.20;99.90
5508;DHT22;2776;51.046;6.772;2024-02-21T08:18:17;9.30;99.90
5508;DHT22;2776;51.046;6.772;2024-02-21T08:20:44;9.30;99.90
5508;DHT22;2776;51.046;6.772;2024-02-21T08:23:11;9.20;99.90
5508;DHT22;2776;51.046;6.772;2024-02-21T08:25:39;9.20;99.90
5508;DHT22;2776;51.046;6.772;2024-02-21T08:28:06;9.10;99.90
5508;DHT22;2776;51.046;6.772;2024-02-21T08:30:33;9.10;99.90
5508;DHT22;2776;51.046;6.772;2024-02-21T08:33:00;9.00;99.90
5508;DHT22;2776;51.046;6.772;2024-02-21T08:35:27;9.00;99.90
5508;DHT22;2776;51.046;6.772;2024-02-21T08:37:53;9.00;99.90
5508;DHT22;2776;51.046;6.772;2024-02-21T08:40:20;9.00;99.90
5508;DHT22;2776;51.046;6.772;2024-02-21T08:42:48;9.10;99.90
5508;DHT22;2776;51.046;6.772;2024-02-21T08:45:15;9.10;99.90
5508;DHT22;2776;51.046;6.772;2024-02-21T08:47:42;9.10;99.90
5508;DHT22;2776;51.046;6.772;2024-02-21T08:50:10;9.20;99.90
5508;DHT22;2776;51.046;6.772;2024-02-21T08:52:36;9.20;99.90
5508;DHT22;2776;51.046;6.772;2024-02-21T08:55:04;9.20;99.90
5508;DHT22;2776;51.046;6.772;2024-02-21T08:57:31;9.20;99.90
5508;DHT22;2776;51.046;6.772;2024-02-21T09:00:04;9.20;99.90
5508;DHT22;2776;51.046;6.772;2024-02-21T09:02:35;9.20;99.90
5508;DHT22;2776;51.046;6.772;2024-02-21T09:05:03;9.30;99.90
5508;DHT22;2776;51.046;6.772;2024-02-21T09:07:31;9.40;99.90
5508;DHT22;2776;51.046;6.772;2024-02-21T09:09:58;9.40;99.90
5508;DHT22;2776;51.046;6.772;2024-02-21T09:12:24;9.50;99.90
5508;DHT22;2776;51.046;6.772;2024-02-21T09:14:51;9.60;99.90
5508;DHT22;2776;51.046;6.772;2024-02-21T09:17:19;9.80;99.90
5508;DHT22;2776;51.046;6.772;2024-02-21T09:19:46;9.90;99.90
5508;DHT22;2776;51.046;6.772;2024-02-21T09:22:13;10.00;99.90
5508;DHT22;2776;51.046;6.772;2024-02-21T09:24:40;10.10;99.90
5508;DHT22;2776;51.046;6.772;2024-02-21T09:27:07;9.90;99.90
5508;DHT22;2776;51.046;6.772;2024-02-21T09:29:34;9.90;99.90
5508;DHT22;2776;51.046;6.772;2024-02-21T09:32:01;10.00;99.90
5508;DHT22;2776;51.046;6.772;2024-02-21T09:34:30;10.10;99.90
5508;DHT22;2776;51.046;6.772;2024-02-21T09:36:57;10.20;99.90
5508;DHT22;2776;51.046;6.772;2024-02-21T09:39:24;10.30;99.90
5508;DHT22;2776;51.046;6.772;2024-02-21T09:41:53;10.40;99.90
5508;DHT22;2776;51.046;6.772;2024-02-21T09:44:24;10.40;99.90
5508;DHT22;2776;51.046;6.772;2024-02-21T09:47:02;10.40;99.90
5508;DHT22;2776;51.046;6.772;2024-02-21T09:49:32;10.40;99.90
5508;DHT22;2776;51.046;6.772;2024-02-21T09:52:01;10.50;99.90
5508;DHT22;2776;51.046;6.772;2024-02-21T09:54:29;10.50;99.90
5508;DHT22;2776;51.046;6.772;2024-02-21T09:56:56;10.60;99.90
5508;DHT22;2776;51.046;6.772;2024-02-21T09:59:24;10.50;99.90
5508;DHT22;2776;51.046;6.772;2024-02-21T10:01:51;10.70;99.90
5508;DHT22;2776;51.046;6.772;2024-02-21T10:04:19;10.70;99.90
5508;DHT22;2776;51.046;6.772;2024-02-21T10:06:47;10.80;99.90
5508;DHT22;2776;51.046;6.772;2024-02-21T10:09:21;10.70;99.90
5508;DHT22;2776;51.046;6.772;2024-02-21T10:11:48;10.70;99.90
5508;DHT22;2776;51.046;6.772;2024-02-21T10:14:15;10.80;99.90
5508;DHT22;2776;51.046;6.772;2024-02-21T10:16:42;10.80;99.90
5508;DHT22;2776;51.046;6.772;2024-02-21T10:19:16;10.70;99.90
5508;DHT22;2776;51.046;6.772;2024-02-21T10:21:43;10.80;99.90
5508;DHT22;2776;51.046;6.772;2024-02-21T10:24:12;10.80;99.90
5508;DHT22;2776;51.046;6.772;2024-02-21T10:26:38;10.90;99.90
5508;DHT22;2776;51.046;6.772;2024-02-21T10:29:05;10.90;99.90
5508;DHT22;2776;51.046;6.772;2024-02-21T10:31:32;11.10;99.90
5508;DHT22;2776;51.046;6.772;2024-02-21T10:34:00;11.20;99.90
5508;DHT22;2776;51.046;6.772;2024-02-21T10:36:29;11.30;99.90
5508;DHT22;2776;51.046;6.772;2024-02-21T10:38:56;11.30;99.90
5508;DHT22;2776;51.046;6.772;2024-02-21T10:41:25;11.30;99.90
5508;DHT22;2776;51.046;6.772;2024-02-21T10:43:54;11.20;99.90
5508;DHT22;2776;51.046;6.772;2024-02-21T10:46:22;11.30;99.90
5508;DHT22;2776;51.046;6.772;2024-02-21T10:48:58;11.50;99.90
5508;DHT22;2776;51.046;6.772;2024-02-21T10:51:29;11.60;99.90
5508;DHT22;2776;51.046;6.772;2024-02-21T10:54:02;11.70;99.90
5508;DHT22;2776;51.046;6.772;2024-02-21T10:56:35;11.70;99.90
5508;DHT22;2776;51.046;6.772;2024-02-21T10:59:06;11.80;99.90
5508;DHT22;2776;51.046;6.772;2024-02-21T11:01:33;11.70;99.90
5508;DHT22;2776;51.046;6.772;2024-02-21T11:04:02;11.70;99.90
5508;DHT22;2776;51.046;6.772;2024-02-21T11:06:30;11.70;99.90
5508;DHT22;2776;51.046;6.772;2024-02-21T11:09:04;11.70;99.90
5508;DHT22;2776;51.046;6.772;2024-02-21T11:11:35;11.60;99.90
5508;DHT22;2776;51.046;6.772;2024-02-21T11:14:07;11.70;99.90
5508;DHT22;2776;51.046;6.772;2024-02-21T11:16:37;11.80;99.90
5508;DHT22;2776;51.046;6.772;2024-02-21T11:19:06;11.90;99.90
5508;DHT22;2776;51.046;6.772;2024-02-21T11:21:34;12.00;99.90
5508;DHT22;2776;51.046;6.772;2024-02-21T11:24:01;11.90;99.90
5508;DHT22;2776;51.046;6.772;2024-02-21T11:26:29;11.70;99.90
5508;DHT22;2776;51.046;6.772;2024-02-21T11:28:58;11.80;99.90
5508;DHT22;2776;51.046;6.772;2024-02-21T11:31:26;11.60;99.90
5508;DHT22;2776;51.046;6.772;2024-02-21T11:33:53;11.70;99.90
5508;DHT22;2776;51.046;6.772;2024-02-21T11:36:26;11.80;99.90
5508;DHT22;2776;51.046;6.772;2024-02-21T11:38:53;11.80;99.90
5508;DHT22;2776;51.046;6.772;2024-02-21T11:41:20;11.80;99.90
5508;DHT22;2776;51.046;6.772;2024-02-21T11:43:48;11.70;99.90
5508;DHT22;2776;51.046;6.772;2024-02-21T11:46:16;11.80;99.90
5508;DHT22;2776;51.046;6.772;2024-02-21T11:48:44;12.00;99.90
5508;DHT22;2776;51.046;6.772;2024-02-21T11:51:21;11.90;99.90
5508;DHT22;2776;51.046;6.772;2024-02-21T11:53:48;11.70;99.90
5508;DHT22;2776;51.046;6.772;2024-02-21T11:56:15;11.80;99.90
5508;DHT22;2776;51.046;6.772;2024-02-21T11:58:42;11.90;99.90
5508;DHT22;2776;51.046;6.772;2024-02-21T12:01:09;11.90;99.90
5508;DHT22;2776;51.046;6.772;2024-02-21T12:03:37;12.00;99.90
5508;DHT22;2776;51.046;6.772;2024-02-21T12:06:06;11.90;99.90
5508;DHT22;2776;51.046;6.772;2024-02-21T12:08:41;11.90;99.90
5508;DHT22;2776;51.046;6.772;2024-02-21T12:11:19;11.90;99.90
5508;DHT22;2776;51.046;6.772;2024-02-21T12:13:46;11.90;99.90
5508;DHT22;2776;51.046;6.772;2024-02-21T12:16:15;11.90;99.90
5508;DHT22;2776;51.046;6.772;2024-02-21T12:18:44;11.90;99.90
5508;DHT22;2776;51.046;6.772;2024-02-21T12:21:11;11.90;99.90
5508;DHT22;2776;51.046;6.772;2024-02-21T12:23:38;11.90;99.90
5508;DHT22;2776;51.046;6.772;2024-02-21T12:26:05;11.80;99.90
5508;DHT22;2776;51.046;6.772;2024-02-21T12:28:33;11.90;99.90
5508;DHT22;2776;51.046;6.772;2024-02-21T12:31:00;11.90;99.90
5508;DHT22;2776;51.046;6.772;2024-02-21T12:33:29;11.90;99.90
5508;DHT22;2776;51.046;6.772;2024-02-21T12:35:57;11.80;99.90
5508;DHT22;2776;51.046;6.772;2024-02-21T12:38:24;11.80;99.90
5508;DHT22;2776;51.046;6.772;2024-02-21T12:40:51;11.90;99.90
5508;DHT22;2776;51.046;6.772;2024-02-21T12:43:18;11.90;99.90
5508;DHT22;2776;51.046;6.772;2024-02-21T12:45:45;12.10;99.90
5508;DHT22;2776;51.046;6.772;2024-02-21T12:48:12;12.20;99.90
5508;DHT22;2776;51.046;6.772;2024-02-21T12:50:40;12.30;99.90
5508;DHT22;2776;51.046;6.772;2024-02-21T12:53:09;12.30;99.90
5508;DHT22;2776;51.046;6.772;2024-02-21T12:55:36;12.40;99.90
5508;DHT22;2776;51.046;6.772;2024-02-21T12:58:05;12.30;99.90
5508;DHT22;2776;51.046;6.772;2024-02-21T13:00:32;12.30;99.90
5508;DHT22;2776;51.046;6.772;2024-02-21T13:03:01;12.50;99.90
5508;DHT22;2776;51.046;6.772;2024-02-21T13:05:28;12.60;99.90
5508;DHT22;2776;51.046;6.772;2024-02-21T13:07:55;12.70;99.90
5508;DHT22;2776;51.046;6.772;2024-02-21T13:10:23;12.70;99.90
5508;DHT22;2776;51.046;6.772;2024-02-21T13:12:49;12.70;99.90
5508;DHT22;2776;51.046;6.772;2024-02-21T13:15:16;12.60;99.90
5508;DHT22;2776;51.046;6.772;2024-02-21T13:17:43;12.60;99.90
5508;DHT22;2776;51.046;6.772;2024-02-21T13:20:11;12.80;99.90
5508;DHT22;2776;51.046;6.772;2024-02-21T13:22:38;12.60;99.90
5508;DHT22;2776;51.046;6.772;2024-02-21T13:25:05;12.50;99.90
5508;DHT22;2776;51.046;6.772;2024-02-21T13:27:34;12.60;99.90
5508;DHT22;2776;51.046;6.772;2024-02-21T13:30:01;12.50;99.90
5508;DHT22;2776;51.046;6.772;2024-02-21T13:32:31;12.50;99.90
5508;DHT22;2776;51.046;6.772;2024-02-21T13:34:58;12.50;99.90
5508;DHT22;2776;51.046;6.772;2024-02-21T13:37:27;12.60;99.90
5508;DHT22;2776;51.046;6.772;2024-02-21T13:39:54;12.60;99.90
5508;DHT22;2776;51.046;6.772;2024-02-21T13:42:21;12.50;99.90
5508;DHT22;2776;51.046;6.772;2024-02-21T13:44:50;12.40;99.90
5508;DHT22;2776;51.046;6.772;2024-02-21T13:47:17;12.30;99.90
5508;DHT22;2776;51.046;6.772;2024-02-21T13:49:44;12.20;99.90
5508;DHT22;2776;51.046;6.772;2024-02-21T13:52:09;12.20;99.90
5508;DHT22;2776;51.046;6.772;2024-02-21T13:54:36;12.30;99.90
5508;DHT22;2776;51.046;6.772;2024-02-21T13:57:03;12.40;99.90
5508;DHT22;2776;51.046;6.772;2024-02-21T13:59:29;12.10;99.90
5508;DHT22;2776;51.046;6.772;2024-02-21T14:01:57;12.10;99.90
5508;DHT22;2776;51.046;6.772;2024-02-21T14:04:24;12.10;99.90
5508;DHT22;2776;51.046;6.772;2024-02-21T14:06:51;12.20;99.90
5508;DHT22;2776;51.046;6.772;2024-02-21T14:09:19;12.10;99.90
5508;DHT22;2776;51.046;6.772;2024-02-21T14:11:45;12.10;99.90
5508;DHT22;2776;51.046;6.772;2024-02-21T14:14:12;12.10;99.90
5508;DHT22;2776;51.046;6.772;2024-02-21T14:16:40;12.10;99.90
5508;DHT22;2776;51.046;6.772;2024-02-21T14:19:08;12.20;99.90
5508;DHT22;2776;51.046;6.772;2024-02-21T14:21:37;12.30;99.90
5508;DHT22;2776;51.046;6.772;2024-02-21T14:24:04;12.30;99.90
5508;DHT22;2776;51.046;6.772;2024-02-21T14:26:31;12.40;99.90
5508;DHT22;2776;51.046;6.772;2024-02-21T14:28:57;12.40;99.90
5508;DHT22;2776;51.046;6.772;2024-02-21T14:31:24;12.40;99.90
5508;DHT22;2776;51.046;6.772;2024-02-21T14:33:52;12.50;99.90
5508;DHT22;2776;51.046;6.772;2024-02-21T14:36:20;12.50;99.90
5508;DHT22;2776;51.046;6.772;2024-02-21T14:38:47;12.50;99.90
5508;DHT22;2776;51.046;6.772;2024-02-21T14:41:14;12.50;99.90
5508;DHT22;2776;51.046;6.772;2024-02-21T14:43:41;12.50;99.90
5508;DHT22;2776;51.046;6.772;2024-02-21T14:46:09;12.40;99.90
5508;DHT22;2776;51.046;6.772;2024-02-21T14:48:36;12.40;99.90
5508;DHT22;2776;51.046;6.772;2024-02-21T14:51:03;12.40;99.90
5508;DHT22;2776;51.046;6.772;2024-02-21T14:53:31;12.40;99.90
5508;DHT22;2776;51.046;6.772;2024-02-21T14:55:57;12.40;99.90
5508;DHT22;2776;51.046;6.772;2024-02-21T14:58:24;12.40;99.90
5508;DHT22;2776;51.046;6.772;2024-02-21T15:00:51;12.30;99.90
5508;DHT22;2776;51.046;6.772;2024-02-21T15:03:18;12.40;99.90
5508;DHT22;2776;51.046;6.772;2024-02-21T15:05:46;12.40;99.90
5508;DHT22;2776;51.046;6.772;2024-02-21T15:08:13;12.50;99.90
5508;DHT22;2776;51.046;6.772;2024-02-21T15:10:43;12.50;99.90
5508;DHT22;2776;51.046;6.772;2024-02-21T15:13:10;12.50;99.90
5508;DHT22;2776;51.046;6.772;2024-02-21T15:15:37;12.40;99.90
5508;DHT22;2776;51.046;6.772;2024-02-21T15:18:04;12.40;99.90
5508;DHT22;2776;51.046;6.772;2024-02-21T15:20:30;12.20;99.90
5508;DHT22;2776;51.046;6.772;2024-02-21T15:22:57;12.20;99.90
5508;DHT22;2776;51.046;6.772;2024-02-21T15:25:24;12.10;99.90
5508;DHT22;2776;51.046;6.772;2024-02-21T15:27:52;12.10;99.90
5508;DHT22;2776;51.046;6.772;2024-02-21T15:30:19;12.00;99.90
5508;DHT22;2776;51.046;6.772;2024-02-21T15:32:46;12.00;99.90
5508;DHT22;2776;51.046;6.772;2024-02-21T15:35:12;11.90;99.90
5508;DHT22;2776;51.046;6.772;2024-02-21T15:37:39;11.80;99.90
5508;DHT22;2776;51.046;6.772;2024-02-21T15:40:07;11.70;99.90
5508;DHT22;2776;51.046;6.772;2024-02-21T15:42:34;11.80;99.90
5508;DHT22;2776;51.046;6.772;2024-02-21T15:45:03;11.80;99.90
5508;DHT22;2776;51.046;6.772;2024-02-21T15:47:30;11.80;99.90
5508;DHT22;2776;51.046;6.772;2024-02-21T15:49:57;11.80;99.90
5508;DHT22;2776;51.046;6.772;2024-02-21T15:52:24;11.80;99.90
5508;DHT22;2776;51.046;6.772;2024-02-21T15:54:52;11.70;99.90
5508;DHT22;2776;51.046;6.772;2024-02-21T15:57:18;11.70;99.90
5508;DHT22;2776;51.046;6.772;2024-02-21T15:59:45;11.60;99.90
5508;DHT22;2776;51.046;6.772;2024-02-21T16:02:15;11.60;99.90
5508;DHT22;2776;51.046;6.772;2024-02-21T16:04:42;11.60;99.90
5508;DHT22;2776;51.046;6.772;2024-02-21T16:07:08;11.50;99.90
5508;DHT22;2776;51.046;6.772;2024-02-21T16:09:35;11.60;99.90
5508;DHT22;2776;51.046;6.772;2024-02-21T16:12:02;11.50;99.90